createdAt,value
2017-07-12T00:01:35.195Z,58.80
2017-07-12T00:04:01.388Z,58.90
2017-07-12T00:06:27.581Z,59.00
2017-07-12T00:08:53.756Z,57.80
2017-07-12T00:11:19.953Z,58.80
2017-07-12T00:13:46.152Z,58.90
2017-07-12T00:16:12.350Z,59.10
2017-07-12T00:18:38.571Z,58.10
2017-07-12T00:21:04.729Z,58.40
2017-07-12T00:23:30.911Z,59.10
2017-07-12T00:25:57.097Z,59.00
2017-07-12T00:28:23.312Z,60.00
2017-07-12T00:30:49.580Z,59.00
2017-07-12T00:33:15.789Z,60.00
2017-07-12T00:35:42.011Z,59.90
2017-07-12T00:38:08.224Z,59.80
2017-07-12T00:40:34.420Z,60.10
2017-07-12T00:43:00.647Z,60.60
2017-07-12T00:45:26.818Z,60.90
2017-07-12T00:47:53.016Z,60.30
2017-07-12T00:50:19.232Z,59.90
2017-07-12T00:52:45.421Z,59.80
2017-07-12T00:55:11.618Z,59.80
2017-07-12T00:57:37.816Z,60.00
2017-07-12T01:00:04.053Z,60.00
2017-07-12T01:02:30.230Z,59.00
2017-07-12T01:04:56.460Z,60.00
2017-07-12T01:07:22.636Z,59.90
2017-07-12T01:09:48.839Z,59.80
2017-07-12T01:12:15.034Z,59.80
2017-07-12T01:14:41.243Z,59.90
2017-07-12T01:17:07.441Z,59.40
2017-07-12T01:19:33.624Z,59.80
2017-07-12T01:21:59.796Z,59.90
2017-07-12T01:24:25.984Z,59.80
2017-07-12T01:26:52.188Z,60.30
2017-07-12T01:29:18.397Z,60.20
2017-07-12T01:31:44.608Z,60.20
2017-07-12T01:34:10.797Z,61.40
2017-07-12T01:36:36.985Z,60.50
2017-07-12T01:39:03.155Z,61.10
2017-07-12T01:41:29.330Z,60.40
2017-07-12T01:43:55.529Z,60.20
2017-07-12T01:46:21.767Z,61.30
2017-07-12T01:48:47.924Z,61.00
2017-07-12T01:51:14.125Z,61.90
2017-07-12T01:53:40.302Z,61.70
2017-07-12T01:56:06.480Z,61.80
2017-07-12T01:58:32.647Z,61.70
2017-07-12T02:00:58.833Z,61.20
2017-07-12T02:03:25.008Z,60.90
2017-07-12T02:05:51.182Z,61.30
2017-07-12T02:08:17.393Z,61.10
2017-07-12T02:10:43.546Z,61.10
2017-07-12T02:13:09.780Z,61.50
2017-07-12T02:15:36.068Z,60.70
2017-07-12T02:18:02.303Z,60.60
2017-07-12T02:20:28.450Z,60.60
2017-07-12T02:22:54.673Z,60.90
2017-07-12T02:25:20.833Z,60.50
2017-07-12T02:27:47.009Z,60.70
2017-07-12T02:30:13.190Z,60.30
2017-07-12T02:32:39.391Z,60.70
2017-07-12T02:35:05.561Z,60.70
2017-07-12T02:37:31.761Z,60.80
2017-07-12T02:39:57.971Z,60.20
2017-07-12T02:42:24.147Z,60.00
2017-07-12T02:44:50.351Z,60.30
2017-07-12T02:47:16.529Z,61.00
2017-07-12T02:49:42.744Z,61.20
2017-07-12T02:52:08.896Z,61.50
2017-07-12T02:54:35.072Z,60.90
2017-07-12T02:57:01.266Z,61.10
2017-07-12T02:59:27.460Z,60.70
2017-07-12T03:01:53.628Z,60.60
2017-07-12T03:04:19.796Z,60.80
2017-07-12T03:06:45.968Z,61.60
2017-07-12T03:09:12.196Z,60.90
2017-07-12T03:11:38.364Z,62.00
2017-07-12T03:14:04.539Z,61.40
2017-07-12T03:16:30.785Z,61.80
2017-07-12T03:18:56.974Z,62.00
2017-07-12T03:21:33.169Z,61.60
2017-07-12T03:23:59.335Z,61.30
2017-07-12T03:26:25.559Z,61.70
2017-07-12T03:28:51.730Z,61.00
2017-07-12T03:31:17.928Z,61.20
2017-07-12T03:33:44.085Z,61.60
2017-07-12T03:36:10.308Z,62.30
2017-07-12T03:38:36.452Z,63.30
2017-07-12T03:41:02.638Z,62.80
2017-07-12T03:43:28.816Z,62.90
2017-07-12T03:45:55.013Z,62.60
2017-07-12T03:48:21.177Z,62.40
2017-07-12T03:50:47.363Z,60.90
2017-07-12T03:53:13.576Z,60.10
2017-07-12T03:55:39.735Z,61.20
2017-07-12T03:58:05.946Z,61.50
2017-07-12T04:00:32.102Z,60.90
2017-07-12T04:02:58.297Z,60.70
2017-07-12T04:05:24.456Z,61.20
2017-07-12T04:07:50.643Z,61.00
2017-07-12T04:10:16.882Z,62.40
2017-07-12T04:12:43.082Z,61.30
2017-07-12T04:15:09.249Z,61.50
2017-07-12T04:17:35.420Z,61.20
2017-07-12T04:20:01.579Z,61.20
2017-07-12T04:22:27.746Z,60.60
2017-07-12T04:24:53.933Z,61.30
2017-07-12T04:27:20.136Z,60.20
2017-07-12T04:29:46.342Z,61.00
2017-07-12T04:32:12.517Z,59.90
2017-07-12T04:34:38.717Z,61.60
2017-07-12T04:37:04.903Z,61.30
2017-07-12T04:39:31.105Z,61.00
2017-07-12T04:41:57.271Z,61.10
2017-07-12T04:44:23.439Z,60.90
2017-07-12T04:46:49.615Z,60.20
2017-07-12T04:49:15.810Z,61.00
2017-07-12T04:51:41.973Z,60.50
2017-07-12T04:54:08.204Z,60.70
2017-07-12T04:56:34.366Z,59.90
2017-07-12T04:59:00.573Z,61.10
2017-07-12T05:01:26.762Z,62.20
2017-07-12T05:03:52.949Z,61.80
2017-07-12T05:06:19.118Z,61.30
2017-07-12T05:08:45.319Z,61.50
2017-07-12T05:11:11.496Z,61.50
2017-07-12T05:13:37.728Z,61.00
2017-07-12T05:16:03.997Z,61.00
2017-07-12T05:18:30.241Z,60.90
2017-07-12T05:20:56.444Z,60.80
2017-07-12T05:23:22.608Z,61.20
2017-07-12T05:25:48.855Z,62.30
2017-07-12T05:28:15.061Z,61.70
2017-07-12T05:30:41.312Z,62.70
2017-07-12T05:33:07.503Z,61.00
2017-07-12T05:35:33.716Z,61.70
2017-07-12T05:38:00.203Z,60.60
2017-07-12T05:40:26.356Z,60.60
2017-07-12T05:42:52.504Z,60.50
2017-07-12T05:45:18.730Z,60.20
2017-07-12T05:47:44.898Z,60.30
2017-07-12T05:50:11.096Z,60.30
2017-07-12T05:52:37.270Z,60.40
2017-07-12T05:55:03.443Z,60.30
2017-07-12T05:57:29.620Z,59.40
2017-07-12T05:59:55.798Z,60.50
2017-07-12T06:02:21.995Z,59.30
2017-07-12T06:04:48.147Z,59.80
2017-07-12T06:07:14.342Z,59.50
2017-07-12T06:09:40.532Z,59.20
2017-07-12T06:12:06.708Z,59.50
2017-07-12T06:14:32.877Z,59.50
2017-07-12T06:16:59.120Z,59.70
2017-07-12T06:19:25.276Z,59.90
2017-07-12T06:21:51.445Z,58.90
2017-07-12T06:24:17.584Z,59.70
2017-07-12T06:26:43.789Z,57.90
2017-07-12T06:29:10.005Z,59.00
2017-07-12T06:31:36.138Z,58.70
2017-07-12T06:34:02.347Z,58.80
2017-07-12T06:36:28.514Z,58.20
2017-07-12T06:38:54.665Z,58.00
2017-07-12T06:41:20.838Z,57.60
2017-07-12T06:43:47.033Z,57.80
2017-07-12T06:46:13.189Z,57.20
2017-07-12T06:48:39.347Z,58.10
2017-07-12T06:51:05.601Z,56.80
2017-07-12T06:53:31.811Z,57.50
2017-07-12T06:55:58.002Z,58.90
2017-07-12T06:58:24.224Z,59.40
2017-07-12T07:00:50.449Z,58.30
2017-07-12T07:03:16.634Z,58.20
2017-07-12T07:05:42.841Z,58.80
2017-07-12T07:08:08.987Z,58.80
2017-07-12T07:10:35.184Z,61.20
2017-07-12T07:13:01.356Z,62.30
2017-07-12T07:15:27.523Z,61.50
2017-07-12T07:17:53.679Z,61.60
2017-07-12T07:20:19.892Z,61.80
2017-07-12T07:22:46.027Z,61.50
2017-07-12T07:25:12.153Z,61.40
2017-07-12T07:27:38.399Z,62.20
2017-07-12T07:30:04.559Z,63.00
2017-07-12T07:32:30.745Z,61.60
2017-07-12T07:34:56.899Z,61.40
2017-07-12T07:37:23.113Z,60.80
2017-07-12T07:39:49.294Z,62.60
2017-07-12T07:42:15.508Z,62.60
2017-07-12T07:44:41.664Z,63.60
2017-07-12T07:47:07.829Z,63.70
2017-07-12T07:49:33.977Z,64.50
2017-07-12T07:52:00.246Z,64.20
2017-07-12T07:54:26.403Z,64.60
2017-07-12T07:56:52.567Z,64.70
2017-07-12T07:59:18.754Z,64.80
2017-07-12T08:01:44.935Z,63.60
2017-07-12T08:04:11.104Z,65.50
2017-07-12T08:06:37.252Z,65.60
2017-07-12T08:09:03.470Z,65.80
2017-07-12T08:11:29.621Z,66.60
2017-07-12T08:13:55.792Z,66.90
2017-07-12T08:16:21.977Z,66.20
2017-07-12T08:18:48.154Z,65.50
2017-07-12T08:21:14.300Z,66.30
2017-07-12T08:23:40.492Z,66.10
2017-07-12T08:26:06.644Z,65.20
2017-07-12T08:28:32.841Z,66.30
2017-07-12T08:30:59.029Z,66.70
2017-07-12T08:33:25.220Z,68.20
2017-07-12T08:35:51.447Z,68.30
2017-07-12T08:38:17.595Z,67.20
2017-07-12T08:40:43.782Z,68.20
2017-07-12T08:43:09.934Z,69.30
2017-07-12T08:45:36.452Z,68.70
2017-07-12T08:48:02.603Z,69.00
2017-07-12T08:50:28.833Z,68.70
2017-07-12T08:52:54.999Z,67.30
2017-07-12T08:55:21.168Z,67.90
2017-07-12T08:57:47.320Z,68.10
2017-07-12T09:00:13.487Z,67.90
2017-07-12T09:02:39.651Z,66.90
2017-07-12T09:05:05.847Z,67.70
2017-07-12T09:07:32.029Z,66.90
2017-07-12T09:09:58.207Z,67.40
2017-07-12T09:12:24.429Z,66.50
2017-07-12T09:14:50.599Z,67.20
2017-07-12T09:17:16.800Z,66.50
2017-07-12T09:19:42.976Z,67.30
2017-07-12T09:22:09.134Z,67.90
2017-07-12T09:34:19.705Z,66.30
2017-07-12T09:36:45.874Z,66.80
2017-07-12T09:39:12.045Z,68.00
2017-07-12T09:41:38.223Z,67.10
2017-07-12T09:44:04.413Z,65.80
2017-07-12T09:46:30.563Z,67.70
2017-07-12T09:48:56.732Z,67.90
2017-07-12T09:51:22.920Z,67.00
2017-07-12T09:53:49.120Z,67.30
2017-07-12T09:56:15.273Z,66.70
2017-07-12T09:58:41.452Z,67.00
2017-07-12T10:01:07.655Z,65.80
2017-07-12T10:03:33.831Z,65.70
2017-07-12T10:05:59.997Z,65.70
2017-07-12T10:08:26.151Z,65.40
2017-07-12T10:10:52.379Z,66.00
2017-07-12T10:13:18.558Z,66.90
2017-07-12T10:15:44.765Z,67.70
2017-07-12T10:18:10.928Z,67.30
2017-07-12T10:20:37.141Z,68.60
2017-07-12T10:23:03.321Z,68.10
2017-07-12T10:25:29.493Z,69.40
2017-07-12T10:27:55.929Z,69.40
2017-07-12T10:30:22.140Z,68.80
2017-07-12T10:32:48.319Z,68.80
2017-07-12T10:35:14.527Z,70.00
2017-07-12T10:37:40.735Z,69.20
2017-07-12T10:40:06.909Z,68.90
2017-07-12T10:42:33.083Z,70.50
2017-07-12T10:44:59.260Z,68.20
2017-07-12T10:47:25.432Z,68.60
2017-07-12T10:49:51.580Z,69.30
2017-07-12T10:52:17.809Z,67.20
2017-07-12T10:54:43.997Z,68.10
2017-07-12T10:57:10.199Z,67.80
2017-07-12T10:59:36.385Z,68.80
2017-07-12T11:02:02.591Z,69.10
2017-07-12T11:04:28.817Z,69.60
2017-07-12T11:06:55.004Z,71.60
2017-07-12T11:09:21.171Z,68.90
2017-07-12T11:11:47.355Z,69.10
2017-07-12T11:14:13.577Z,68.20
2017-07-12T11:16:39.815Z,67.20
2017-07-12T11:19:05.991Z,68.60
2017-07-12T11:21:32.132Z,67.80
2017-07-12T11:23:58.284Z,68.50
2017-07-12T11:26:24.420Z,68.60
2017-07-12T11:28:50.619Z,69.30
2017-07-12T11:31:16.779Z,69.60
2017-07-12T11:33:42.979Z,69.80
2017-07-12T11:36:09.148Z,69.90
2017-07-12T11:38:35.336Z,70.20
2017-07-12T11:41:01.522Z,69.60
2017-07-12T11:43:27.691Z,69.60
2017-07-12T11:45:53.861Z,67.70
2017-07-12T11:48:20.064Z,68.00
2017-07-12T11:50:46.389Z,69.00
2017-07-12T11:53:12.564Z,68.70
2017-07-12T11:55:38.791Z,69.60
2017-07-12T11:58:04.988Z,69.60
2017-07-12T12:00:31.150Z,68.80
2017-07-12T12:02:57.321Z,70.00
2017-07-12T12:05:23.497Z,70.10
2017-07-12T12:07:49.663Z,69.80
2017-07-12T12:10:15.864Z,70.30
2017-07-12T12:12:42.043Z,69.60
2017-07-12T12:15:08.230Z,69.00
2017-07-12T12:17:34.384Z,70.50
2017-07-12T12:20:00.567Z,69.10
2017-07-12T12:22:26.754Z,70.30
2017-07-12T12:24:52.944Z,70.30
2017-07-12T12:27:19.110Z,69.60
2017-07-12T12:29:45.304Z,69.30
2017-07-12T12:32:11.454Z,69.80
2017-07-12T12:34:37.628Z,70.00
2017-07-12T12:37:03.864Z,70.00
2017-07-12T12:39:30.081Z,71.50
2017-07-12T12:41:56.242Z,70.40
2017-07-12T12:44:22.384Z,69.80
2017-07-12T12:46:48.645Z,70.50
2017-07-12T12:49:14.871Z,70.30
2017-07-12T12:51:41.078Z,69.60
2017-07-12T12:54:07.279Z,68.00
2017-07-12T12:56:33.482Z,69.70
2017-07-12T12:58:59.698Z,68.50
2017-07-12T13:01:25.876Z,68.20
2017-07-12T13:03:52.040Z,67.30
2017-07-12T13:06:18.250Z,66.80
2017-07-12T13:08:44.397Z,66.20
2017-07-12T13:11:10.529Z,66.40
2017-07-12T13:13:36.712Z,66.80
2017-07-12T13:16:02.864Z,67.20
2017-07-12T13:18:29.051Z,66.90
2017-07-12T13:20:55.225Z,66.30
2017-07-12T13:23:21.404Z,66.10
2017-07-12T13:25:47.556Z,64.80
2017-07-12T13:28:13.750Z,65.40
2017-07-12T13:30:39.918Z,64.70
2017-07-12T13:33:06.121Z,63.70
2017-07-12T13:35:32.284Z,64.10
2017-07-12T13:37:58.503Z,63.40
2017-07-12T13:40:25.688Z,63.60
2017-07-12T13:42:51.898Z,63.00
2017-07-12T13:45:19.067Z,61.40
2017-07-12T13:47:45.266Z,63.00
2017-07-12T13:50:11.450Z,63.40
2017-07-12T13:52:37.634Z,61.60
2017-07-12T13:55:03.816Z,60.60
2017-07-12T13:57:29.989Z,61.60
2017-07-12T13:59:56.191Z,61.20
2017-07-12T14:02:22.361Z,61.60
2017-07-12T14:04:49.553Z,60.20
2017-07-12T14:07:15.716Z,62.10
2017-07-12T14:09:41.891Z,62.00
2017-07-12T14:12:08.140Z,60.30
2017-07-12T14:14:36.305Z,61.30
2017-07-12T14:17:02.509Z,61.90
2017-07-12T14:19:28.732Z,61.00
2017-07-12T14:21:54.948Z,60.80
2017-07-12T14:24:22.099Z,60.00
2017-07-12T14:26:48.284Z,59.40
2017-07-12T14:29:14.484Z,60.60
2017-07-12T14:31:40.672Z,60.90
2017-07-12T14:34:06.891Z,61.50
2017-07-12T14:36:33.119Z,60.70
2017-07-12T14:38:59.285Z,62.10
2017-07-12T14:41:25.451Z,61.40
2017-07-12T14:43:51.623Z,60.00
2017-07-12T14:46:17.836Z,59.40
2017-07-12T14:48:44.058Z,60.10
2017-07-12T14:51:10.220Z,61.20
2017-07-12T14:53:36.430Z,60.00
2017-07-12T14:56:02.604Z,61.10
2017-07-12T14:58:28.769Z,61.00
2017-07-12T15:00:54.900Z,59.40
2017-07-12T15:03:21.135Z,59.50
2017-07-12T15:05:48.277Z,59.10
2017-07-12T15:08:14.463Z,58.70
2017-07-12T15:10:40.606Z,58.10
2017-07-12T15:13:06.871Z,58.80
2017-07-12T15:15:34.063Z,56.20
2017-07-12T15:18:00.219Z,56.80
2017-07-12T15:20:26.390Z,57.30
2017-07-12T15:22:52.593Z,57.10
2017-07-12T15:25:18.785Z,52.80
2017-07-12T15:27:44.941Z,67.10
2017-07-12T15:30:11.103Z,72.90
2017-07-12T15:32:37.349Z,75.70
2017-07-12T15:35:03.531Z,76.30
2017-07-12T15:37:29.744Z,76.90
2017-07-12T15:39:55.937Z,77.00
2017-07-12T15:42:22.134Z,77.70
2017-07-12T15:44:48.418Z,77.40
2017-07-12T15:47:14.632Z,78.00
2017-07-12T15:49:40.919Z,78.20
2017-07-12T15:52:08.189Z,78.30
2017-07-12T15:54:34.399Z,78.60
2017-07-12T15:57:00.923Z,78.90
2017-07-12T15:59:28.244Z,79.20
2017-07-12T16:01:54.456Z,79.30
2017-07-12T16:04:21.648Z,79.70
2017-07-12T16:06:47.837Z,79.60
2017-07-12T16:09:14.017Z,79.70
2017-07-12T16:11:40.307Z,79.70
2017-07-12T16:14:07.666Z,79.60
2017-07-12T16:16:33.860Z,79.40
2017-07-12T16:19:00.012Z,79.40
2017-07-12T16:21:26.237Z,78.80
2017-07-12T16:23:52.534Z,79.30
2017-07-12T16:26:18.709Z,79.30
2017-07-12T16:28:44.913Z,79.30
2017-07-12T16:31:11.086Z,78.80
2017-07-12T16:33:37.265Z,79.10
2017-07-12T16:36:04.432Z,78.80
2017-07-12T16:38:30.648Z,78.80
2017-07-12T16:40:56.820Z,78.80
2017-07-12T16:43:22.984Z,78.20
2017-07-12T16:45:49.171Z,78.10
2017-07-12T16:48:15.466Z,78.80
2017-07-12T16:50:41.652Z,79.30
2017-07-12T16:53:07.848Z,77.60
2017-07-12T16:55:34.029Z,78.40
2017-07-12T16:58:00.530Z,78.40
2017-07-12T17:00:26.758Z,78.80
2017-07-12T17:02:53.929Z,78.40
2017-07-12T17:05:20.204Z,78.00
2017-07-12T17:07:46.356Z,76.90
2017-07-12T17:10:12.537Z,77.80
2017-07-12T17:12:38.716Z,77.50
2017-07-12T17:15:04.933Z,76.40
2017-07-12T17:17:31.104Z,76.80
2017-07-12T17:19:57.315Z,75.10
2017-07-12T17:22:23.487Z,74.70
2017-07-12T17:24:49.738Z,73.60
2017-07-12T17:27:15.906Z,74.30
2017-07-12T17:29:42.096Z,74.30
2017-07-12T17:32:08.340Z,72.40
2017-07-12T17:34:34.499Z,73.60
2017-07-12T17:37:00.737Z,71.60
2017-07-12T17:39:26.973Z,73.00
2017-07-12T17:41:56.640Z,71.60
2017-07-12T17:44:22.798Z,69.90
2017-07-12T17:46:49.023Z,69.30
2017-07-12T17:49:15.173Z,70.70
2017-07-12T17:51:41.420Z,68.70
2017-07-12T17:54:07.593Z,69.40
2017-07-12T17:56:33.777Z,69.90
2017-07-12T17:58:59.931Z,71.00
2017-07-12T18:01:26.100Z,68.90
2017-07-12T18:03:52.267Z,67.30
2017-07-12T18:06:18.528Z,68.40
2017-07-12T18:08:44.748Z,68.80
2017-07-12T18:11:10.943Z,69.90
2017-07-12T18:13:37.132Z,68.20
2017-07-12T18:16:03.328Z,69.90
2017-07-12T18:18:29.631Z,67.80
2017-07-12T18:20:55.792Z,69.90
2017-07-12T18:23:21.995Z,65.10
2017-07-12T18:25:48.160Z,65.50
2017-07-12T18:28:14.385Z,66.40
2017-07-12T18:30:40.550Z,67.40
2017-07-12T18:33:07.583Z,66.30
2017-07-12T18:35:33.735Z,66.50
2017-07-12T18:37:59.958Z,66.70
2017-07-12T18:40:26.155Z,66.30
2017-07-12T18:42:52.385Z,66.30
2017-07-12T18:45:18.559Z,67.20
2017-07-12T18:47:44.744Z,64.40
2017-07-12T18:50:10.902Z,66.80
2017-07-12T18:52:37.101Z,67.00
2017-07-12T18:55:03.242Z,64.20
2017-07-12T18:57:30.411Z,65.50
2017-07-12T18:59:56.563Z,66.20
2017-07-12T19:02:22.755Z,65.30
2017-07-12T19:04:48.907Z,65.50
2017-07-12T19:07:15.053Z,65.80
2017-07-12T19:09:41.248Z,65.10
2017-07-12T19:12:07.480Z,63.90
2017-07-12T19:14:33.660Z,65.30
2017-07-12T19:16:59.863Z,65.80
2017-07-12T19:19:27.061Z,66.90
2017-07-12T19:21:53.215Z,65.20
2017-07-12T19:24:19.376Z,65.70
2017-07-12T19:26:46.284Z,65.50
2017-07-12T19:29:12.459Z,65.20
2017-07-12T19:31:38.598Z,64.70
2017-07-12T19:34:04.765Z,64.40
2017-07-12T19:36:30.928Z,64.80
2017-07-12T19:38:57.092Z,64.20
2017-07-12T19:41:23.297Z,65.70
2017-07-12T19:43:49.494Z,63.90
2017-07-12T19:46:15.703Z,63.40
2017-07-12T19:48:41.874Z,62.00
2017-07-12T19:51:08.056Z,59.00
2017-07-12T19:53:34.302Z,60.30
2017-07-12T19:56:00.483Z,61.90
2017-07-12T19:58:26.664Z,59.20
2017-07-12T20:00:52.860Z,58.40
2017-07-12T20:03:19.010Z,60.30
2017-07-12T20:05:45.193Z,59.80
2017-07-12T20:08:11.331Z,58.80
2017-07-12T20:10:37.485Z,58.60
2017-07-12T20:13:03.660Z,57.80
2017-07-12T20:15:29.811Z,58.50
2017-07-12T20:17:56.041Z,58.40
2017-07-12T20:20:22.197Z,57.90
2017-07-12T20:22:48.363Z,58.40
2017-07-12T20:25:14.569Z,58.90
2017-07-12T20:27:40.691Z,59.70
2017-07-12T20:30:06.888Z,59.50
2017-07-12T20:32:33.063Z,58.40
2017-07-12T20:34:59.199Z,58.90
2017-07-12T20:37:25.375Z,60.30
2017-07-12T20:39:51.512Z,59.70
2017-07-12T20:42:17.688Z,60.80
2017-07-12T20:44:43.829Z,59.70
2017-07-12T20:47:09.973Z,61.40
2017-07-12T20:49:36.116Z,61.70
2017-07-12T20:52:03.286Z,62.70
2017-07-12T20:54:29.452Z,63.50
2017-07-12T20:56:55.591Z,64.30
2017-07-12T20:59:21.751Z,62.50
2017-07-12T21:01:47.911Z,61.00
2017-07-12T21:04:14.116Z,60.80
2017-07-12T21:06:40.300Z,57.00
2017-07-12T21:09:06.525Z,55.20
2017-07-12T21:11:33.598Z,54.30
2017-07-12T21:13:59.794Z,52.60
2017-07-12T21:16:25.988Z,54.20
2017-07-12T21:18:52.219Z,54.40
2017-07-12T21:21:18.531Z,54.40
2017-07-12T21:23:44.808Z,54.60
2017-07-12T21:26:11.032Z,56.70
2017-07-12T21:28:37.216Z,55.00
2017-07-12T21:31:03.423Z,55.20
2017-07-12T21:33:29.593Z,56.10
2017-07-12T21:35:55.835Z,56.60
2017-07-12T21:38:22.064Z,54.40
2017-07-12T21:40:48.249Z,56.60
2017-07-12T21:43:14.464Z,55.90
2017-07-12T21:45:40.779Z,55.40
2017-07-12T21:48:06.975Z,57.50
2017-07-12T21:50:33.219Z,54.10
2017-07-12T21:52:59.415Z,54.50
2017-07-12T21:55:43.838Z,57.20
2017-07-12T21:58:28.455Z,57.00
2017-07-12T22:01:12.999Z,57.00
2017-07-12T22:03:57.656Z,57.60
2017-07-12T22:06:42.179Z,59.00
2017-07-12T22:09:26.736Z,58.10
2017-07-12T22:12:11.292Z,57.30
2017-07-12T22:14:55.869Z,58.30
2017-07-12T22:17:40.452Z,58.10
2017-07-12T22:20:24.973Z,57.20
2017-07-12T22:23:09.499Z,58.60
2017-07-12T22:25:54.040Z,59.60
2017-07-12T22:28:38.600Z,58.90
2017-07-12T22:31:23.278Z,59.00
2017-07-12T22:34:07.667Z,58.10
2017-07-12T22:36:52.293Z,57.90
2017-07-12T22:39:24.579Z,57.10
2017-07-12T22:41:56.881Z,57.30
2017-07-12T22:44:23.017Z,57.70
2017-07-12T22:46:49.365Z,59.00
2017-07-12T22:49:16.666Z,59.20
2017-07-12T22:51:43.005Z,59.30
2017-07-12T22:54:09.368Z,58.60
2017-07-12T22:56:35.692Z,57.80
2017-07-12T22:59:01.991Z,58.20
2017-07-12T23:01:28.210Z,59.90
2017-07-12T23:03:56.831Z,59.40
2017-07-12T23:06:23.122Z,60.50
2017-07-12T23:08:49.376Z,62.00
2017-07-12T23:11:15.561Z,61.50
2017-07-12T23:13:41.857Z,63.00
2017-07-12T23:16:08.081Z,61.00
2017-07-12T23:18:34.288Z,61.00
2017-07-12T23:21:00.461Z,61.30
2017-07-12T23:23:26.687Z,61.30
2017-07-12T23:25:52.884Z,62.60
2017-07-12T23:28:19.221Z,65.00
2017-07-12T23:30:45.429Z,64.10
2017-07-12T23:33:11.770Z,64.20
2017-07-12T23:35:38.141Z,62.10
2017-07-12T23:38:04.350Z,64.00
2017-07-12T23:40:30.577Z,62.60
2017-07-12T23:42:56.784Z,62.20
2017-07-12T23:45:23.037Z,63.50
2017-07-12T23:47:49.256Z,64.10
2017-07-12T23:50:15.492Z,64.60
2017-07-12T23:52:41.709Z,64.40
2017-07-12T23:55:07.879Z,62.30
2017-07-12T23:57:34.059Z,63.20
